Eglin Air Force Base
KVPS : now visible

Airfield :











YOU CAN JOIN US ON...

 
LOGIN :

Register | Disclaimer

   EN    FR    IT 

 









Legend :    VFR   Marginal VFR   IFR   Intensive IFR   Very Intensive IFR
Visi :
Ceiling :
>= 8 km
>= 3000ft
5 to 8 km
1000 to 3000 ft
1500m to 5 km
500 to 1000 ft
800 to 1500m
200 to 500 ft
< 800m
< 200 ft
Symbols :   Thunderstorms  Fog  Heavy snow  Heavy precipitations  Wind > 20 kt







- Airport Elevation : 87 ft
- IATA code : VPS


KVPS - Eglin Air Force Base

CURRENT METAR :
  • 210111Z AUTO 14006KT 1SM R19/5500V6000FT BR VV001 20/20 A2999 RMK AO2 SLP162 FZRANO $

EXPIRED METARs :
  • 210056Z AUTO 16007KT 1 1/8SM BR OVC001 20/20 A2999 RMK AO2 RAE2358RAB15E17 SLP162 P0000 T02020202 $
  • 210042Z AUTO 15006KT 1SM R19/5500V6000FT BR VV001 20/20 A2998 RMK AO2 RAE2358RAB15E17 SLP159 $
  • 210022Z AUTO 14007KT 1 1/4SM BR OVC001 20/20 A2998 RMK AO2 RAE2358RAB15E17 SLP159 $
  • 210017Z AUTO 15006KT 1 1/8SM BR OVC001 20/20 A2998 RMK AO2 RAE2358RAB15E17 SLP159 $
  • 210008Z AUTO 15007KT 1 1/8SM R19/6000FT BR OVC001 20/20 A2998 RMK AO2 RAE2358 SLP159 $
  • 202356Z AUTO 14007KT 7/8SM R19/4500V5000FT -RA BR VV001 20/20 A2998 RMK AO2 RAB04E11RAB52 SLP159 P0000 60000 T01990199 10206 20186 52005 FZRANO $
  • 202336Z AUTO 14007KT 3/8SM R19/3500V4500FT FG VV001 20/20 A2998 RMK AO2 RAB04E11 SLP159 $
  • 202311Z AUTO 15008KT 3/8SM R19/2600V3500FT FG VV001 20/20 A2998 RMK AO2 RAB04E11 CIG 000 RWY01 CIG 000 RWY30 SLP159 FZRANO $
  • 202304Z AUTO 15007KT 1/4SM R19/2600V2800FT -RA FG VV001 20/20 A2997 RMK AO2 RAB04 CIG 000 RWY01 CIG 000 RWY30 SLP155 FZRANO $
  • 202229Z AUTO 14006KT 3/8SM R19/3000V3500FT FG VV001 21/21 A2997 RMK AO2 CIG 000 RWY01 CIG 000 RWY30 SLP155 FZRANO $
  • 202224Z AUTO 15008KT 1/2SM R19/3000V4000FT FG VV001 20/20 A2997 RMK AO2 CIG 000 RWY01 CIG 000 RWY30 SLP155 $
  • 202219Z AUTO 15008KT 5/8SM R19/3500V4500FT FG VV001 20/20 A2997 RMK AO2 SLP155 $

TAF AMD TAF KVPS
Valid from the 20 at 22:00 until the 22 at 00:00 UTC


202230Z 2022/2124 15009KT 0400 FG OVC001 QNH2996INS
BECMG 2111/2112 15006KT 0800 FG OVC003 QNH2998INS
BECMG 2115/2116 17008KT 4800 BR OVC005 QNH3000INS TX22/2121Z TN18/2112Z
KZJX FIR / North America



MET'MAP, your aeronautical weather chart ! - Copyright ORBIFLY December 2007 - Disclaimer

ORBIFLY MET'MAP TEAM :

Programming & Development : Alexandra Zaïnal
Concept & Development : Baudouin d'Aumeries
Co-Development & Prog : Marc-Olivier Méhu
Technical & hardware support : Manuel Goepfert

Contact : metmap@orbifly.com




SOURCES & CREDITS :

   NOAA       Earth
Advisory